sensor_id;sensor_type;location;lat;lon;timestamp;pressure;altitude;pressure_sealevel;temperature;humidity
7990;BME280;4040;42.848;23.034;2022-08-19T00:00:16;94651.69;;;19.40;100.00
7990;BME280;4040;42.848;23.034;2022-08-19T00:10:10;94653.28;;;19.05;100.00
7990;BME280;4040;42.848;23.034;2022-08-19T00:15:59;94649.00;;;19.13;100.00
7990;BME280;4040;42.848;23.034;2022-08-19T00:21:48;94651.44;;;19.11;100.00
7990;BME280;4040;42.848;23.034;2022-08-19T00:27:39;94654.19;;;19.02;100.00
7990;BME280;4040;42.848;23.034;2022-08-19T00:33:28;94644.50;;;18.92;100.00
7990;BME280;4040;42.848;23.034;2022-08-19T00:39:18;94647.44;;;18.79;100.00
7990;BME280;4040;42.848;23.034;2022-08-19T00:45:13;94639.69;;;18.78;100.00
7990;BME280;4040;42.848;23.034;2022-08-19T00:51:04;94646.66;;;18.79;100.00
7990;BME280;4040;42.848;23.034;2022-08-19T00:56:53;94640.91;;;18.86;100.00
7990;BME280;4040;42.848;23.034;2022-08-19T01:02:44;94633.59;;;18.92;100.00
7990;BME280;4040;42.848;23.034;2022-08-19T01:12:55;94637.19;;;19.16;100.00
7990;BME280;4040;42.848;23.034;2022-08-19T01:18:48;94632.81;;;19.09;100.00
7990;BME280;4040;42.848;23.034;2022-08-19T01:24:39;94641.84;;;18.47;100.00
7990;BME280;4040;42.848;23.034;2022-08-19T01:30:32;94647.13;;;18.32;100.00
7990;BME280;4040;42.848;23.034;2022-08-19T01:36:24;94629.13;;;18.35;100.00
7990;BME280;4040;42.848;23.034;2022-08-19T01:42:14;94643.50;;;18.26;100.00
7990;BME280;4040;42.848;23.034;2022-08-19T01:48:04;94647.72;;;18.09;100.00
7990;BME280;4040;42.848;23.034;2022-08-19T01:53:52;94648.78;;;18.12;100.00
7990;BME280;4040;42.848;23.034;2022-08-19T01:59:44;94639.69;;;18.06;100.00
7990;BME280;4040;42.848;23.034;2022-08-19T02:05:33;94644.38;;;18.05;100.00
7990;BME280;4040;42.848;23.034;2022-08-19T02:15:45;94643.31;;;18.12;100.00
7990;BME280;4040;42.848;23.034;2022-08-19T02:21:34;94649.34;;;17.98;100.00
7990;BME280;4040;42.848;23.034;2022-08-19T02:27:24;94631.47;;;17.97;100.00
7990;BME280;4040;42.848;23.034;2022-08-19T02:33:14;94641.19;;;17.89;100.00
7990;BME280;4040;42.848;23.034;2022-08-19T02:39:03;94642.03;;;17.68;100.00
7990;BME280;4040;42.848;23.034;2022-08-19T02:44:52;94628.22;;;17.23;100.00
7990;BME280;4040;42.848;23.034;2022-08-19T02:50:45;94642.16;;;16.95;100.00
7990;BME280;4040;42.848;23.034;2022-08-19T02:56:34;94643.31;;;16.85;100.00
7990;BME280;4040;42.848;23.034;2022-08-19T03:02:24;94652.44;;;17.00;100.00
7990;BME280;4040;42.848;23.034;2022-08-19T03:08:14;94662.63;;;17.08;100.00
7990;BME280;4040;42.848;23.034;2022-08-19T03:18:24;94653.78;;;17.26;100.00
7990;BME280;4040;42.848;23.034;2022-08-19T03:24:16;94651.84;;;17.26;100.00
7990;BME280;4040;42.848;23.034;2022-08-19T03:30:06;94675.19;;;17.36;100.00
7990;BME280;4040;42.848;23.034;2022-08-19T03:36:00;94666.69;;;17.34;100.00
7990;BME280;4040;42.848;23.034;2022-08-19T03:41:53;94675.69;;;17.22;100.00
7990;BME280;4040;42.848;23.034;2022-08-19T03:47:43;94668.44;;;16.67;100.00
7990;BME280;4040;42.848;23.034;2022-08-19T03:53:34;94676.28;;;16.65;100.00
7990;BME280;4040;42.848;23.034;2022-08-19T03:59:27;94678.84;;;16.90;100.00
7990;BME280;4040;42.848;23.034;2022-08-19T04:05:16;94681.25;;;17.40;100.00
7990;BME280;4040;42.848;23.034;2022-08-19T04:11:07;94684.38;;;17.60;100.00
7990;BME280;4040;42.848;23.034;2022-08-19T04:21:21;94674.66;;;17.50;100.00
7990;BME280;4040;42.848;23.034;2022-08-19T04:27:10;94694.56;;;17.38;100.00
7990;BME280;4040;42.848;23.034;2022-08-19T04:32:59;94678.63;;;17.67;100.00
7990;BME280;4040;42.848;23.034;2022-08-19T04:38:52;94684.66;;;18.10;100.00
7990;BME280;4040;42.848;23.034;2022-08-19T04:44:41;94681.53;;;18.75;100.00
7990;BME280;4040;42.848;23.034;2022-08-19T04:50:29;94681.31;;;19.65;100.00
7990;BME280;4040;42.848;23.034;2022-08-19T04:56:20;94685.66;;;20.74;100.00
7990;BME280;4040;42.848;23.034;2022-08-19T05:02:09;94687.41;;;22.02;100.00
7990;BME280;4040;42.848;23.034;2022-08-19T05:07:58;94682.47;;;22.60;100.00
7990;BME280;4040;42.848;23.034;2022-08-19T05:13:49;94690.03;;;23.67;96.93
7990;BME280;4040;42.848;23.034;2022-08-19T05:23:59;94695.06;;;26.86;81.74
7990;BME280;4040;42.848;23.034;2022-08-19T05:29:49;94694.06;;;28.05;67.40
7990;BME280;4040;42.848;23.034;2022-08-19T05:35:38;94691.38;;;29.14;61.49
7990;BME280;4040;42.848;23.034;2022-08-19T05:41:28;94706.66;;;29.76;55.96
7990;BME280;4040;42.848;23.034;2022-08-19T05:47:19;94692.59;;;29.87;57.91
7990;BME280;4040;42.848;23.034;2022-08-19T05:53:08;94691.06;;;31.01;54.33
7990;BME280;4040;42.848;23.034;2022-08-19T05:58:58;94696.84;;;31.03;49.40
7990;BME280;4040;42.848;23.034;2022-08-19T06:04:49;94690.03;;;31.84;52.31
7990;BME280;4040;42.848;23.034;2022-08-19T06:10:37;94698.47;;;33.51;46.45
7990;BME280;4040;42.848;23.034;2022-08-19T06:16:26;94692.63;;;33.92;46.38
7990;BME280;4040;42.848;23.034;2022-08-19T06:26:41;94689.03;;;33.69;45.86
7990;BME280;4040;42.848;23.034;2022-08-19T06:32:30;94694.34;;;34.63;43.13
7990;BME280;4040;42.848;23.034;2022-08-19T06:38:19;94691.25;;;36.39;39.14
7990;BME280;4040;42.848;23.034;2022-08-19T06:44:34;94696.84;;;37.22;39.11
7990;BME280;4040;42.848;23.034;2022-08-19T06:50:24;94702.78;;;37.60;33.98
7990;BME280;4040;42.848;23.034;2022-08-19T06:56:13;94702.66;;;38.11;34.18
7990;BME280;4040;42.848;23.034;2022-08-19T07:02:05;94699.03;;;38.53;32.45
7990;BME280;4040;42.848;23.034;2022-08-19T07:07:53;94693.41;;;39.08;35.32
7990;BME280;4040;42.848;23.034;2022-08-19T07:13:43;94690.66;;;40.24;33.51
7990;BME280;4040;42.848;23.034;2022-08-19T07:19:35;94689.44;;;41.40;31.21
7990;BME280;4040;42.848;23.034;2022-08-19T07:22:04;94683.22;;;40.19;30.23
7990;BME280;4040;42.848;23.034;2022-08-19T07:27:53;94693.59;;;39.29;34.20
7990;BME280;4040;42.848;23.034;2022-08-19T07:33:42;94687.59;;;41.23;32.47
7990;BME280;4040;42.848;23.034;2022-08-19T07:39:35;94693.88;;;39.33;29.08
7990;BME280;4040;42.848;23.034;2022-08-19T07:45:24;94701.13;;;41.25;31.49
7990;BME280;4040;42.848;23.034;2022-08-19T07:51:18;94685.22;;;42.84;26.67
7990;BME280;4040;42.848;23.034;2022-08-19T07:57:08;94694.13;;;43.38;26.29
7990;BME280;4040;42.848;23.034;2022-08-19T08:02:57;94680.53;;;43.48;26.10
7990;BME280;4040;42.848;23.034;2022-08-19T08:08:46;94678.75;;;44.16;26.35
7990;BME280;4040;42.848;23.034;2022-08-19T08:14:51;94680.94;;;44.56;26.14
7990;BME280;4040;42.848;23.034;2022-08-19T08:20:41;94666.31;;;45.15;24.92
7990;BME280;4040;42.848;23.034;2022-08-19T08:26:30;94660.69;;;43.00;25.92
7990;BME280;4040;42.848;23.034;2022-08-19T08:32:20;94657.50;;;42.36;25.68
7990;BME280;4040;42.848;23.034;2022-08-19T08:38:09;94653.16;;;44.68;24.65
7990;BME280;4040;42.848;23.034;2022-08-19T08:43:58;94656.53;;;44.51;23.72
7990;BME280;4040;42.848;23.034;2022-08-19T08:49:52;94653.31;;;44.18;22.42
7990;BME280;4040;42.848;23.034;2022-08-19T08:55:44;94654.28;;;46.30;21.95
7990;BME280;4040;42.848;23.034;2022-08-19T09:01:33;94644.56;;;45.06;21.15
7990;BME280;4040;42.848;23.034;2022-08-19T09:07:33;94624.41;;;46.95;21.13
7990;BME280;4040;42.848;23.034;2022-08-19T09:13:32;94635.47;;;46.87;20.44
7990;BME280;4040;42.848;23.034;2022-08-19T09:19:22;94627.00;;;47.90;20.78
7990;BME280;4040;42.848;23.034;2022-08-19T09:29:34;94613.56;;;45.83;19.68
7990;BME280;4040;42.848;23.034;2022-08-19T09:35:25;94590.31;;;44.35;20.71
7990;BME280;4040;42.848;23.034;2022-08-19T09:41:18;94599.06;;;44.66;20.59
7990;BME280;4040;42.848;23.034;2022-08-19T09:47:09;94590.50;;;45.48;20.95
7990;BME280;4040;42.848;23.034;2022-08-19T09:52:58;94591.91;;;44.65;20.37
7990;BME280;4040;42.848;23.034;2022-08-19T09:58:47;94581.78;;;45.44;21.16
7990;BME280;4040;42.848;23.034;2022-08-19T10:04:38;94580.88;;;44.71;20.53
7990;BME280;4040;42.848;23.034;2022-08-19T10:07:31;94573.53;;;45.21;20.83
7990;BME280;4040;42.848;23.034;2022-08-19T10:13:22;94567.69;;;44.10;20.93
7990;BME280;4040;42.848;23.034;2022-08-19T10:19:13;94569.50;;;41.65;22.21
7990;BME280;4040;42.848;23.034;2022-08-19T10:25:05;94572.50;;;41.35;23.36
7990;BME280;4040;42.848;23.034;2022-08-19T10:30:54;94571.31;;;41.38;22.69
7990;BME280;4040;42.848;23.034;2022-08-19T10:36:43;94554.31;;;41.82;23.84
7990;BME280;4040;42.848;23.034;2022-08-19T10:42:33;94547.69;;;42.12;21.61
7990;BME280;4040;42.848;23.034;2022-08-19T10:48:22;94550.75;;;40.42;23.78
7990;BME280;4040;42.848;23.034;2022-08-19T10:54:12;94545.28;;;39.74;24.02
7990;BME280;4040;42.848;23.034;2022-08-19T11:00:03;94539.50;;;38.94;25.90
7990;BME280;4040;42.848;23.034;2022-08-19T11:05:59;94530.56;;;37.86;26.38
7990;BME280;4040;42.848;23.034;2022-08-19T11:11:47;94532.97;;;37.10;29.53
7990;BME280;4040;42.848;23.034;2022-08-19T11:17:38;94503.78;;;36.62;29.04
7990;BME280;4040;42.848;23.034;2022-08-19T11:23:29;94520.94;;;36.32;28.39
7990;BME280;4040;42.848;23.034;2022-08-19T11:29:21;94516.41;;;35.95;27.73
7990;BME280;4040;42.848;23.034;2022-08-19T11:35:14;94512.66;;;35.75;28.29
7990;BME280;4040;42.848;23.034;2022-08-19T11:41:05;94498.13;;;35.45;29.11
7990;BME280;4040;42.848;23.034;2022-08-19T11:46:54;94492.19;;;35.41;27.91
7990;BME280;4040;42.848;23.034;2022-08-19T11:52:45;94489.66;;;35.28;28.77
7990;BME280;4040;42.848;23.034;2022-08-19T11:58:35;94475.81;;;34.98;28.34
7990;BME280;4040;42.848;23.034;2022-08-19T12:04:24;94465.00;;;35.51;30.90
7990;BME280;4040;42.848;23.034;2022-08-19T12:10:15;94459.81;;;35.72;29.72
7990;BME280;4040;42.848;23.034;2022-08-19T12:16:07;94460.97;;;35.69;27.74
7990;BME280;4040;42.848;23.034;2022-08-19T12:21:59;94454.09;;;35.38;29.83
7990;BME280;4040;42.848;23.034;2022-08-19T12:32:11;94452.38;;;35.67;28.78
7990;BME280;4040;42.848;23.034;2022-08-19T12:38:00;94441.94;;;35.60;28.83
7990;BME280;4040;42.848;23.034;2022-08-19T12:43:50;94441.84;;;35.75;27.90
7990;BME280;4040;42.848;23.034;2022-08-19T12:49:40;94429.50;;;35.29;28.76
7990;BME280;4040;42.848;23.034;2022-08-19T12:55:31;94419.78;;;35.30;28.47
7990;BME280;4040;42.848;23.034;2022-08-19T13:01:20;94415.34;;;35.27;29.91
7990;BME280;4040;42.848;23.034;2022-08-19T13:07:10;94408.59;;;35.30;29.25
7990;BME280;4040;42.848;23.034;2022-08-19T13:12:58;94400.84;;;35.14;30.84
7990;BME280;4040;42.848;23.034;2022-08-19T13:18:49;94389.97;;;35.25;30.83
7990;BME280;4040;42.848;23.034;2022-08-19T13:24:41;94389.19;;;35.32;29.04
7990;BME280;4040;42.848;23.034;2022-08-19T13:34:51;94381.66;;;35.18;30.60
7990;BME280;4040;42.848;23.034;2022-08-19T13:40:41;94380.59;;;35.30;30.79
7990;BME280;4040;42.848;23.034;2022-08-19T13:46:30;94385.41;;;35.37;29.23
7990;BME280;4040;42.848;23.034;2022-08-19T13:52:19;94377.22;;;35.32;30.50
7990;BME280;4040;42.848;23.034;2022-08-19T13:58:10;94364.06;;;35.41;29.12
7990;BME280;4040;42.848;23.034;2022-08-19T14:03:59;94364.47;;;35.38;28.12
7990;BME280;4040;42.848;23.034;2022-08-19T14:09:48;94361.97;;;35.25;29.63
7990;BME280;4040;42.848;23.034;2022-08-19T14:15:38;94358.53;;;35.34;29.09
7990;BME280;4040;42.848;23.034;2022-08-19T14:21:27;94362.25;;;35.37;30.13
7990;BME280;4040;42.848;23.034;2022-08-19T14:27:16;94361.91;;;35.33;29.21
7990;BME280;4040;42.848;23.034;2022-08-19T14:37:28;94344.03;;;35.28;30.47
7990;BME280;4040;42.848;23.034;2022-08-19T14:43:17;94356.72;;;35.29;29.19
7990;BME280;4040;42.848;23.034;2022-08-19T14:49:06;94348.31;;;35.29;28.51
7990;BME280;4040;42.848;23.034;2022-08-19T14:54:57;94339.34;;;35.06;29.04
7990;BME280;4040;42.848;23.034;2022-08-19T15:00:45;94330.16;;;34.89;30.52
7990;BME280;4040;42.848;23.034;2022-08-19T15:06:35;94342.84;;;34.90;30.28
7990;BME280;4040;42.848;23.034;2022-08-19T15:12:25;94346.09;;;35.03;31.06
7990;BME280;4040;42.848;23.034;2022-08-19T15:18:14;94352.47;;;34.96;30.75
7990;BME280;4040;42.848;23.034;2022-08-19T15:24:04;94337.63;;;34.86;32.01
7990;BME280;4040;42.848;23.034;2022-08-19T15:29:55;94342.09;;;34.89;32.17
7990;BME280;4040;42.848;23.034;2022-08-19T15:40:07;94334.94;;;34.71;31.75
7990;BME280;4040;42.848;23.034;2022-08-19T15:45:57;94331.03;;;34.67;31.86
7990;BME280;4040;42.848;23.034;2022-08-19T15:51:48;94348.78;;;34.62;32.65
7990;BME280;4040;42.848;23.034;2022-08-19T15:57:37;94345.00;;;34.42;32.26
7990;BME280;4040;42.848;23.034;2022-08-19T16:03:45;94343.22;;;34.22;33.07
7990;BME280;4040;42.848;23.034;2022-08-19T16:09:51;94347.19;;;34.04;33.04
7990;BME280;4040;42.848;23.034;2022-08-19T16:15:40;94362.16;;;33.92;33.85
7990;BME280;4040;42.848;23.034;2022-08-19T16:21:33;94369.47;;;33.72;33.83
7990;BME280;4040;42.848;23.034;2022-08-19T16:27:23;94365.75;;;33.62;33.65
7990;BME280;4040;42.848;23.034;2022-08-19T16:33:12;94371.00;;;33.43;34.75
7990;BME280;4040;42.848;23.034;2022-08-19T16:35:39;94373.63;;;33.26;34.34
7990;BME280;4040;42.848;23.034;2022-08-19T16:41:29;94373.78;;;32.83;34.94
7990;BME280;4040;42.848;23.034;2022-08-19T16:47:18;94366.84;;;32.62;34.82
7990;BME280;4040;42.848;23.034;2022-08-19T16:53:07;94371.78;;;32.33;35.25
7990;BME280;4040;42.848;23.034;2022-08-19T16:58:57;94386.56;;;32.14;35.58
7990;BME280;4040;42.848;23.034;2022-08-19T17:04:47;94386.78;;;31.80;36.24
7990;BME280;4040;42.848;23.034;2022-08-19T17:10:35;94393.81;;;31.46;37.28
7990;BME280;4040;42.848;23.034;2022-08-19T17:16:28;94405.72;;;31.26;37.47
7990;BME280;4040;42.848;23.034;2022-08-19T17:22:18;94404.44;;;30.86;38.40
7990;BME280;4040;42.848;23.034;2022-08-19T17:28:19;94404.28;;;30.71;38.34
7990;BME280;4040;42.848;23.034;2022-08-19T17:34:10;94408.00;;;30.40;39.39
7990;BME280;4040;42.848;23.034;2022-08-19T17:39:59;94416.09;;;30.04;40.36
7990;BME280;4040;42.848;23.034;2022-08-19T17:45:48;94418.13;;;29.91;41.25
7990;BME280;4040;42.848;23.034;2022-08-19T17:51:41;94423.28;;;29.61;41.43
7990;BME280;4040;42.848;23.034;2022-08-19T17:57:30;94427.94;;;29.27;42.73
7990;BME280;4040;42.848;23.034;2022-08-19T18:03:20;94426.25;;;28.93;44.41
7990;BME280;4040;42.848;23.034;2022-08-19T18:09:09;94442.28;;;28.81;45.66
7990;BME280;4040;42.848;23.034;2022-08-19T18:14:58;94438.84;;;28.75;43.87
7990;BME280;4040;42.848;23.034;2022-08-19T18:20:48;94443.22;;;28.71;43.63
7990;BME280;4040;42.848;23.034;2022-08-19T18:26:37;94453.22;;;28.42;44.72
7990;BME280;4040;42.848;23.034;2022-08-19T18:32:28;94459.97;;;28.04;47.77
7990;BME280;4040;42.848;23.034;2022-08-19T18:42:43;94464.38;;;27.22;52.11
7990;BME280;4040;42.848;23.034;2022-08-19T18:48:49;94473.13;;;26.62;56.45
7990;BME280;4040;42.848;23.034;2022-08-19T18:54:55;94480.06;;;26.34;61.01
7990;BME280;4040;42.848;23.034;2022-08-19T19:00:47;94470.47;;;25.89;60.09
7990;BME280;4040;42.848;23.034;2022-08-19T19:06:37;94487.06;;;25.72;65.00
7990;BME280;4040;42.848;23.034;2022-08-19T19:12:27;94500.69;;;25.43;70.73
7990;BME280;4040;42.848;23.034;2022-08-19T19:18:17;94506.94;;;25.05;72.93
7990;BME280;4040;42.848;23.034;2022-08-19T19:24:06;94524.72;;;24.76;78.52
7990;BME280;4040;42.848;23.034;2022-08-19T19:29:55;94535.16;;;24.50;82.57
7990;BME280;4040;42.848;23.034;2022-08-19T19:35:45;94546.16;;;24.45;87.50
7990;BME280;4040;42.848;23.034;2022-08-19T19:45:55;94539.81;;;24.17;90.62
7990;BME280;4040;42.848;23.034;2022-08-19T19:51:47;94543.75;;;23.94;93.14
7990;BME280;4040;42.848;23.034;2022-08-19T19:57:35;94552.47;;;23.92;98.61
7990;BME280;4040;42.848;23.034;2022-08-19T20:03:26;94548.06;;;23.64;100.00
7990;BME280;4040;42.848;23.034;2022-08-19T20:09:16;94554.84;;;23.32;100.00
7990;BME280;4040;42.848;23.034;2022-08-19T20:15:06;94547.22;;;22.91;100.00
7990;BME280;4040;42.848;23.034;2022-08-19T20:20:55;94558.88;;;22.80;100.00
7990;BME280;4040;42.848;23.034;2022-08-19T20:26:45;94563.88;;;22.56;100.00
7990;BME280;4040;42.848;23.034;2022-08-19T20:32:34;94567.81;;;22.10;100.00
7990;BME280;4040;42.848;23.034;2022-08-19T20:38:23;94562.69;;;22.17;100.00
7990;BME280;4040;42.848;23.034;2022-08-19T20:48:35;94564.38;;;22.55;100.00
7990;BME280;4040;42.848;23.034;2022-08-19T20:54:25;94575.00;;;22.73;100.00
7990;BME280;4040;42.848;23.034;2022-08-19T21:00:14;94575.00;;;22.73;100.00
7990;BME280;4040;42.848;23.034;2022-08-19T21:06:05;94572.66;;;22.60;100.00
7990;BME280;4040;42.848;23.034;2022-08-19T21:11:53;94575.59;;;22.37;100.00
7990;BME280;4040;42.848;23.034;2022-08-19T21:17:42;94576.38;;;22.37;100.00
7990;BME280;4040;42.848;23.034;2022-08-19T21:23:34;94572.41;;;21.98;100.00
7990;BME280;4040;42.848;23.034;2022-08-19T21:29:22;94587.28;;;21.57;100.00
7990;BME280;4040;42.848;23.034;2022-08-19T21:35:11;94579.28;;;21.39;100.00
7990;BME280;4040;42.848;23.034;2022-08-19T21:41:03;94577.66;;;21.47;100.00
7990;BME280;4040;42.848;23.034;2022-08-19T21:51:14;94556.22;;;21.80;100.00
7990;BME280;4040;42.848;23.034;2022-08-19T21:57:05;94561.69;;;21.80;100.00
7990;BME280;4040;42.848;23.034;2022-08-19T22:08:37;94572.22;;;21.33;100.00
7990;BME280;4040;42.848;23.034;2022-08-19T22:14:27;94573.53;;;20.79;100.00
7990;BME280;4040;42.848;23.034;2022-08-19T22:20:19;94574.22;;;20.74;100.00
7990;BME280;4040;42.848;23.034;2022-08-19T22:26:10;94564.13;;;20.52;100.00
7990;BME280;4040;42.848;23.034;2022-08-19T22:31:59;94559.00;;;20.45;100.00
7990;BME280;4040;42.848;23.034;2022-08-19T22:37:48;94556.84;;;20.63;100.00
7990;BME280;4040;42.848;23.034;2022-08-19T22:43:39;94549.09;;;20.47;100.00
7990;BME280;4040;42.848;23.034;2022-08-19T22:49:27;94541.09;;;20.44;100.00
7990;BME280;4040;42.848;23.034;2022-08-19T22:55:16;94536.16;;;20.19;100.00
7990;BME280;4040;42.848;23.034;2022-08-19T23:01:07;94525.75;;;20.08;100.00
7990;BME280;4040;42.848;23.034;2022-08-19T23:11:17;94538.91;;;19.72;100.00
7990;BME280;4040;42.848;23.034;2022-08-19T23:17:07;94535.22;;;19.75;100.00
7990;BME280;4040;42.848;23.034;2022-08-19T23:22:56;94541.28;;;19.79;100.00
7990;BME280;4040;42.848;23.034;2022-08-19T23:28:45;94540.31;;;19.67;100.00
7990;BME280;4040;42.848;23.034;2022-08-19T23:34:55;94537.69;;;19.73;100.00
7990;BME280;4040;42.848;23.034;2022-08-19T23:40:44;94532.22;;;19.73;100.00
7990;BME280;4040;42.848;23.034;2022-08-19T23:46:33;94529.13;;;19.80;100.00
7990;BME280;4040;42.848;23.034;2022-08-19T23:52:24;94523.69;;;19.80;100.00
7990;BME280;4040;42.848;23.034;2022-08-19T23:58:15;94515.47;;;19.80;100.00
